createdAt,value
2023-04-16T00:02:02.555Z,100164.63
2023-04-16T00:07:04.155Z,100164.75
2023-04-16T00:12:06.591Z,100166.91
2023-04-16T00:17:08.040Z,100164.97
2023-04-16T00:22:09.575Z,100163.16
2023-04-16T00:27:11.168Z,100163.78
2023-04-16T00:32:12.553Z,100167.28
2023-04-16T00:37:14.293Z,100160.13
2023-04-16T00:42:15.648Z,100159.44
2023-04-16T00:47:17.202Z,100164.38
2023-04-16T00:52:18.514Z,100174.63
2023-04-16T00:57:21.029Z,100174.94
2023-04-16T01:02:22.876Z,100172.97
2023-04-16T01:07:24.388Z,100172.84
2023-04-16T01:12:25.829Z,100155.72
2023-04-16T01:17:27.196Z,100171.31
2023-04-16T01:22:29.204Z,100177.59
2023-04-16T01:27:31.177Z,100179.91
2023-04-16T01:32:32.640Z,100191.25
2023-04-16T01:37:34.032Z,100192.81
2023-04-16T01:42:36.017Z,100201.66
2023-04-16T01:47:37.573Z,100198.16
2023-04-16T01:52:38.911Z,100205.16
2023-04-16T01:57:40.426Z,100210.97
2023-04-16T02:02:42.590Z,100207.56
2023-04-16T02:07:44.017Z,100196.13
2023-04-16T02:12:45.412Z,100212.66
2023-04-16T02:17:48.529Z,100219.44
2023-04-16T02:22:50.010Z,100229.56
2023-04-16T02:27:51.412Z,100223.59
2023-04-16T02:32:52.864Z,100213.91
2023-04-16T02:37:54.206Z,100227.31
2023-04-16T02:42:55.745Z,100229.63
2023-04-16T02:47:57.183Z,100238.81
2023-04-16T02:52:58.591Z,100231.66
2023-04-16T02:57:59.950Z,100233.97
2023-04-16T03:03:01.675Z,100238.56
2023-04-16T03:08:06.873Z,100242.75
2023-04-16T03:13:08.144Z,100233.47
2023-04-16T03:18:09.460Z,100229.75
2023-04-16T03:23:10.748Z,100225.63
2023-04-16T03:28:12.089Z,100229.00
2023-04-16T03:33:13.457Z,100237.81
2023-04-16T03:38:14.790Z,100254.50
2023-04-16T03:43:16.114Z,100239.16
2023-04-16T03:48:17.814Z,100227.44
2023-04-16T03:53:19.649Z,100243.63
2023-04-16T03:58:21.470Z,100240.22
2023-04-16T04:03:23.057Z,100236.81
2023-04-16T04:08:24.626Z,100234.50
2023-04-16T04:13:25.916Z,100243.56
2023-04-16T04:18:27.696Z,100240.88
2023-04-16T04:23:28.977Z,100245.88
2023-04-16T04:28:30.644Z,100244.53
2023-04-16T04:33:32.249Z,100242.16
2023-04-16T04:38:33.594Z,100253.78
2023-04-16T04:43:35.038Z,100264.66
2023-04-16T04:48:36.390Z,100256.66
2023-04-16T04:53:37.923Z,100260.53
2023-04-16T04:58:39.225Z,100271.53
2023-04-16T05:03:40.754Z,100279.88
2023-04-16T05:08:42.160Z,100293.56
2023-04-16T05:13:43.512Z,100289.31
2023-04-16T05:18:44.808Z,100285.19
2023-04-16T05:23:46.089Z,100298.63
2023-04-16T05:28:47.392Z,100303.22
2023-04-16T05:33:48.794Z,100305.28
2023-04-16T05:38:50.107Z,100312.53
2023-04-16T05:43:51.451Z,100318.69
2023-04-16T05:48:52.767Z,100329.22
2023-04-16T05:53:54.088Z,100320.28
2023-04-16T05:58:55.438Z,100336.41
2023-04-16T06:03:57.025Z,100330.44
2023-04-16T06:08:58.476Z,100324.75
2023-04-16T06:13:59.792Z,100332.03
2023-04-16T06:19:01.274Z,100329.47
2023-04-16T06:24:02.642Z,100341.31
2023-04-16T06:29:04.061Z,100340.34
2023-04-16T06:34:05.660Z,100329.47
2023-04-16T06:39:07.042Z,100332.03
2023-04-16T06:44:08.476Z,100350.75
2023-04-16T06:49:09.987Z,100353.44
2023-04-16T06:54:11.503Z,100363.25
2023-04-16T06:59:12.846Z,100357.78
2023-04-16T07:04:14.559Z,100365.78
2023-04-16T07:09:17.815Z,100369.91
2023-04-16T07:14:19.176Z,100369.19
2023-04-16T07:19:21.383Z,100369.19
2023-04-16T07:24:22.716Z,100364.59
2023-04-16T07:29:24.095Z,100367.97
2023-04-16T07:34:25.468Z,100357.41
2023-04-16T07:39:26.778Z,100370.81
2023-04-16T07:44:28.147Z,100379.09
2023-04-16T07:49:29.551Z,100379.38
2023-04-16T07:54:31.055Z,100379.22
2023-04-16T07:59:32.434Z,100390.00
2023-04-16T08:04:33.943Z,100395.94
2023-04-16T08:09:36.077Z,100402.59
2023-04-16T08:14:37.425Z,100410.00
2023-04-16T08:19:38.734Z,100411.78
2023-04-16T08:24:40.314Z,100423.69
2023-04-16T08:29:41.592Z,100425.84
2023-04-16T08:34:43.040Z,100425.13
2023-04-16T08:39:44.312Z,100427.03
2023-04-16T08:44:49.479Z,100434.91
2023-04-16T08:49:56.307Z,100435.38
2023-04-16T08:55:06.937Z,100444.81
2023-04-16T09:00:10.262Z,100438.38
2023-04-16T09:05:17.119Z,100439.47
2023-04-16T09:10:19.837Z,100442.63
2023-04-16T09:15:22.052Z,100450.47
2023-04-16T09:20:23.440Z,100450.63
2023-04-16T09:25:25.151Z,100449.03
2023-04-16T09:30:27.713Z,100469.13
2023-04-16T09:35:45.266Z,100473.47
2023-04-16T09:40:49.538Z,100467.78
2023-04-16T09:45:55.342Z,100477.81
2023-04-16T09:50:57.496Z,100476.47
2023-04-16T09:56:01.158Z,100472.59
2023-04-16T10:01:05.093Z,100486.50
2023-04-16T10:06:19.525Z,100498.84
2023-04-16T10:11:21.619Z,100502.00
2023-04-16T10:16:23.768Z,100499.25
2023-04-16T10:21:26.366Z,100510.78
2023-04-16T10:26:29.993Z,100505.91
2023-04-16T10:31:31.637Z,100518.50
2023-04-16T10:36:37.075Z,100528.09
2023-04-16T10:41:38.784Z,100521.88
2023-04-16T10:46:42.548Z,100528.69
2023-04-16T10:51:53.209Z,100525.50
2023-04-16T10:56:58.633Z,100525.19
2023-04-16T11:02:02.022Z,100527.22
2023-04-16T11:07:16.967Z,100532.56
2023-04-16T11:12:27.586Z,100541.50
2023-04-16T11:17:32.675Z,100540.47
2023-04-16T11:22:36.639Z,100538.72
2023-04-16T11:27:38.225Z,100543.25
2023-04-16T11:32:40.114Z,100538.63
2023-04-16T11:37:41.964Z,100537.41
2023-04-16T11:42:44.203Z,100555.81
2023-04-16T11:47:51.779Z,100549.72
2023-04-16T11:52:55.550Z,100556.25
2023-04-16T11:57:57.484Z,100555.72
2023-04-16T12:02:59.425Z,100553.66
2023-04-16T12:08:03.226Z,100553.38
2023-04-16T12:13:11.944Z,100560.31
2023-04-16T12:18:14.146Z,100560.50
2023-04-16T12:23:30.272Z,100554.19
2023-04-16T12:28:38.181Z,100550.94
2023-04-16T12:33:39.535Z,100558.03
2023-04-16T12:38:40.856Z,100568.22
2023-04-16T12:43:42.246Z,100562.47
2023-04-16T12:48:43.982Z,100574.78
2023-04-16T12:53:45.290Z,100566.47
2023-04-16T12:58:46.729Z,100563.09
2023-04-16T13:03:48.481Z,100569.50
2023-04-16T13:08:49.946Z,100562.44
2023-04-16T13:13:51.388Z,100567.84
2023-04-16T13:18:53.270Z,100569.53
2023-04-16T13:23:54.863Z,100562.78
2023-04-16T13:28:56.267Z,100561.34
2023-04-16T13:33:57.876Z,100561.47
2023-04-16T13:39:00.430Z,100561.06
2023-04-16T13:44:01.908Z,100569.41
2023-04-16T13:49:03.899Z,100548.00
2023-04-16T13:54:05.432Z,100571.56
2023-04-16T13:59:07.093Z,100566.41
2023-04-16T14:04:08.589Z,100568.88
2023-04-16T14:09:10.894Z,100568.28
2023-04-16T14:14:12.733Z,100570.72
2023-04-16T14:19:14.068Z,100578.19
2023-04-16T14:24:15.451Z,100579.28
2023-04-16T14:29:16.948Z,100580.66
2023-04-16T14:34:18.306Z,100557.16
2023-04-16T14:39:21.955Z,100586.22
2023-04-16T14:44:23.580Z,100572.72
2023-04-16T14:49:25.172Z,100580.66
2023-04-16T14:54:26.659Z,100583.38
2023-04-16T14:59:28.221Z,100580.81
2023-04-16T15:04:29.832Z,100581.97
2023-04-16T15:09:32.184Z,100588.56
2023-04-16T15:14:33.517Z,100590.00
2023-04-16T15:19:34.970Z,100586.03
2023-04-16T15:24:36.414Z,100579.44
2023-04-16T15:29:37.733Z,100587.47
2023-04-16T15:34:39.097Z,100586.84
2023-04-16T15:39:40.690Z,100584.44
2023-04-16T15:44:42.097Z,100590.81
2023-04-16T15:49:43.516Z,100598.09
2023-04-16T15:54:44.835Z,100601.16
2023-04-16T16:00:03.164Z,100596.66
2023-04-16T16:05:13.245Z,100599.94
2023-04-16T16:10:14.603Z,100611.19
2023-04-16T16:15:16.224Z,100610.50
2023-04-16T16:20:17.981Z,100619.94
2023-04-16T16:25:20.172Z,100618.25
2023-04-16T16:30:21.586Z,100611.44
2023-04-16T16:35:23.374Z,100604.75
2023-04-16T16:40:25.152Z,100614.66
2023-04-16T16:45:27.072Z,100631.56
2023-04-16T16:50:28.629Z,100624.78
2023-04-16T16:55:29.953Z,100619.63
2023-04-16T17:00:31.780Z,100635.66
2023-04-16T17:05:33.139Z,100631.41
2023-04-16T17:10:35.795Z,100637.88
2023-04-16T17:15:37.186Z,100643.50
2023-04-16T17:20:38.580Z,100646.44
2023-04-16T17:25:40.244Z,100645.44
2023-04-16T17:30:42.169Z,100647.66
2023-04-16T17:35:43.684Z,100660.09
2023-04-16T17:40:45.255Z,100663.16
2023-04-16T17:45:46.662Z,100665.75
2023-04-16T17:50:48.548Z,100672.22
2023-04-16T17:55:51.598Z,100681.44
2023-04-16T18:00:53.121Z,100674.66
2023-04-16T18:05:54.496Z,100684.50
2023-04-16T18:10:56.755Z,100688.38
2023-04-16T18:15:58.230Z,100688.66
2023-04-16T18:20:59.607Z,100694.94
2023-04-16T18:26:01.201Z,100697.63
2023-04-16T18:31:05.509Z,100713.91
2023-04-16T18:36:07.264Z,100712.69
2023-04-16T18:41:22.342Z,100725.09
2023-04-16T18:46:24.128Z,100728.13
2023-04-16T18:51:26.997Z,100724.75
2023-04-16T18:56:29.742Z,100729.84
2023-04-16T19:01:31.355Z,100733.59
2023-04-16T19:06:33.015Z,100748.19
2023-04-16T19:11:34.301Z,100750.34
2023-04-16T19:16:35.766Z,100743.34
2023-04-16T19:21:37.193Z,100753.63
2023-04-16T19:26:38.546Z,100746.00
2023-04-16T19:31:40.011Z,100754.97
2023-04-16T19:36:42.247Z,100754.13
2023-04-16T19:41:43.682Z,100750.34
2023-04-16T19:46:45.429Z,100764.44
2023-04-16T19:51:46.800Z,100765.41
2023-04-16T19:56:51.483Z,100756.53
2023-04-16T20:01:52.929Z,100766.13
2023-04-16T20:06:54.432Z,100769.00
2023-04-16T20:11:56.800Z,100770.34
2023-04-16T20:16:58.144Z,100776.50
2023-04-16T20:21:59.611Z,100775.91
2023-04-16T20:27:01.688Z,100785.75
2023-04-16T20:32:03.139Z,100755.28
2023-04-16T20:37:04.949Z,100768.25
2023-04-16T20:42:10.048Z,100764.13
2023-04-16T20:47:13.041Z,100777.47
2023-04-16T20:52:14.715Z,100773.44
2023-04-16T20:57:16.264Z,100761.34
2023-04-16T21:02:18.748Z,100761.66
2023-04-16T21:07:20.452Z,100773.44
2023-04-16T21:12:21.899Z,100768.81
2023-04-16T21:17:23.278Z,100773.78
2023-04-16T21:22:25.271Z,100765.19
2023-04-16T21:27:27.123Z,100766.88
2023-04-16T21:32:28.582Z,100766.88
2023-04-16T21:37:30.036Z,100770.66
2023-04-16T21:42:39.800Z,100773.19
2023-04-16T21:47:41.236Z,100773.06
2023-04-16T21:52:46.212Z,100771.38
2023-04-16T21:57:48.000Z,100769.53
2023-04-16T22:02:49.520Z,100766.50
2023-04-16T22:07:52.354Z,100759.69
2023-04-16T22:12:54.917Z,100766.75
2023-04-16T22:17:56.349Z,100773.28
2023-04-16T22:22:58.581Z,100773.63
2023-04-16T22:28:01.306Z,100762.34
2023-04-16T22:33:03.796Z,100769.13
2023-04-16T22:38:05.412Z,100762.34
2023-04-16T22:43:06.739Z,100764.16
2023-04-16T22:48:08.500Z,100765.59
2023-04-16T22:53:09.853Z,100754.81
2023-04-16T22:58:11.270Z,100767.91
2023-04-16T23:03:12.651Z,100766.22
2023-04-16T23:08:14.031Z,100766.69
2023-04-16T23:13:15.743Z,100754.81
2023-04-16T23:18:17.141Z,100760.66
2023-04-16T23:23:18.607Z,100760.28
2023-04-16T23:28:20.586Z,100762.06
2023-04-16T23:33:22.073Z,100762.19
2023-04-16T23:38:23.576Z,100757.84
2023-04-16T23:43:25.006Z,100749.44
2023-04-16T23:48:26.753Z,100760.16
2023-04-16T23:53:28.188Z,100756.63
2023-04-16T23:58:29.538Z,100752.63
